sensor_id;sensor_type;location;lat;lon;timestamp;temperature;humidity
48551;DHT22;34397;51.176;6.738;2023-05-10T00:00:44;14.10;83.30
48551;DHT22;34397;51.176;6.738;2023-05-10T00:03:16;14.10;82.90
48551;DHT22;34397;51.176;6.738;2023-05-10T00:05:48;14.10;82.70
48551;DHT22;34397;51.176;6.738;2023-05-10T00:08:21;14.10;83.20
48551;DHT22;34397;51.176;6.738;2023-05-10T00:10:53;14.10;83.00
48551;DHT22;34397;51.176;6.738;2023-05-10T00:13:24;14.10;83.20
48551;DHT22;34397;51.176;6.738;2023-05-10T00:15:56;14.10;83.70
48551;DHT22;34397;51.176;6.738;2023-05-10T00:18:28;14.10;83.60
48551;DHT22;34397;51.176;6.738;2023-05-10T00:20:59;14.10;83.70
48551;DHT22;34397;51.176;6.738;2023-05-10T00:23:33;14.10;83.40
48551;DHT22;34397;51.176;6.738;2023-05-10T00:26:04;14.10;83.80
48551;DHT22;34397;51.176;6.738;2023-05-10T00:28:36;14.10;83.60
48551;DHT22;34397;51.176;6.738;2023-05-10T00:31:08;14.10;83.50
48551;DHT22;34397;51.176;6.738;2023-05-10T00:33:39;14.10;83.60
48551;DHT22;34397;51.176;6.738;2023-05-10T00:36:11;14.10;83.70
48551;DHT22;34397;51.176;6.738;2023-05-10T00:38:45;14.10;83.90
48551;DHT22;34397;51.176;6.738;2023-05-10T00:41:16;14.10;83.70
48551;DHT22;34397;51.176;6.738;2023-05-10T00:43:48;14.10;84.10
48551;DHT22;34397;51.176;6.738;2023-05-10T00:46:20;14.20;83.80
48551;DHT22;34397;51.176;6.738;2023-05-10T00:48:52;14.10;83.80
48551;DHT22;34397;51.176;6.738;2023-05-10T00:51:23;14.10;83.70
48551;DHT22;34397;51.176;6.738;2023-05-10T00:53:57;14.10;83.50
48551;DHT22;34397;51.176;6.738;2023-05-10T00:56:29;14.10;83.90
48551;DHT22;34397;51.176;6.738;2023-05-10T00:59:01;14.10;83.40
48551;DHT22;34397;51.176;6.738;2023-05-10T01:01:33;14.10;83.10
48551;DHT22;34397;51.176;6.738;2023-05-10T01:04:05;14.00;83.20
48551;DHT22;34397;51.176;6.738;2023-05-10T01:06:36;14.00;83.10
48551;DHT22;34397;51.176;6.738;2023-05-10T01:09:09;14.00;83.00
48551;DHT22;34397;51.176;6.738;2023-05-10T01:11:42;14.00;83.50
48551;DHT22;34397;51.176;6.738;2023-05-10T01:14:13;14.00;83.40
48551;DHT22;34397;51.176;6.738;2023-05-10T01:16:46;14.00;83.20
48551;DHT22;34397;51.176;6.738;2023-05-10T01:19:20;14.00;83.30
48551;DHT22;34397;51.176;6.738;2023-05-10T01:21:56;14.00;83.60
48551;DHT22;34397;51.176;6.738;2023-05-10T01:24:47;14.00;83.50
48551;DHT22;34397;51.176;6.738;2023-05-10T01:27:47;13.90;83.90
48551;DHT22;34397;51.176;6.738;2023-05-10T01:30:51;13.90;83.50
48551;DHT22;34397;51.176;6.738;2023-05-10T01:33:37;13.90;83.50
48551;DHT22;34397;51.176;6.738;2023-05-10T01:36:13;13.90;84.00
48551;DHT22;34397;51.176;6.738;2023-05-10T01:38:49;13.90;83.60
48551;DHT22;34397;51.176;6.738;2023-05-10T01:41:24;13.90;83.70
48551;DHT22;34397;51.176;6.738;2023-05-10T01:44:01;13.90;83.40
48551;DHT22;34397;51.176;6.738;2023-05-10T01:46:36;13.90;83.10
48551;DHT22;34397;51.176;6.738;2023-05-10T01:49:11;13.90;83.00
48551;DHT22;34397;51.176;6.738;2023-05-10T01:51:48;13.90;83.00
48551;DHT22;34397;51.176;6.738;2023-05-10T01:54:22;13.90;83.10
48551;DHT22;34397;51.176;6.738;2023-05-10T01:56:56;13.90;82.90
48551;DHT22;34397;51.176;6.738;2023-05-10T01:59:31;13.90;82.90
48551;DHT22;34397;51.176;6.738;2023-05-10T02:02:09;13.90;83.00
48551;DHT22;34397;51.176;6.738;2023-05-10T02:04:43;13.90;83.10
48551;DHT22;34397;51.176;6.738;2023-05-10T02:07:16;13.90;83.40
48551;DHT22;34397;51.176;6.738;2023-05-10T02:09:48;13.90;83.40
48551;DHT22;34397;51.176;6.738;2023-05-10T02:12:20;14.00;83.40
48551;DHT22;34397;51.176;6.738;2023-05-10T02:14:53;14.00;83.10
48551;DHT22;34397;51.176;6.738;2023-05-10T02:17:25;14.00;83.10
48551;DHT22;34397;51.176;6.738;2023-05-10T02:19:59;14.00;82.80
48551;DHT22;34397;51.176;6.738;2023-05-10T02:22:31;14.00;82.70
48551;DHT22;34397;51.176;6.738;2023-05-10T02:25:04;14.00;82.50
48551;DHT22;34397;51.176;6.738;2023-05-10T02:27:37;14.10;82.30
48551;DHT22;34397;51.176;6.738;2023-05-10T02:30:10;14.00;82.40
48551;DHT22;34397;51.176;6.738;2023-05-10T02:32:42;14.10;82.50
48551;DHT22;34397;51.176;6.738;2023-05-10T02:35:15;14.10;82.50
48551;DHT22;34397;51.176;6.738;2023-05-10T02:37:47;14.10;82.40
48551;DHT22;34397;51.176;6.738;2023-05-10T02:40:20;14.10;82.40
48551;DHT22;34397;51.176;6.738;2023-05-10T02:42:54;14.20;82.30
48551;DHT22;34397;51.176;6.738;2023-05-10T02:45:27;14.10;82.20
48551;DHT22;34397;51.176;6.738;2023-05-10T02:48:01;14.20;82.20
48551;DHT22;34397;51.176;6.738;2023-05-10T02:50:34;14.20;82.70
48551;DHT22;34397;51.176;6.738;2023-05-10T02:53:09;14.20;82.00
48551;DHT22;34397;51.176;6.738;2023-05-10T02:55:42;14.20;81.90
48551;DHT22;34397;51.176;6.738;2023-05-10T02:58:17;14.20;82.00
48551;DHT22;34397;51.176;6.738;2023-05-10T03:00:49;14.30;82.10
48551;DHT22;34397;51.176;6.738;2023-05-10T03:03:21;14.30;82.60
48551;DHT22;34397;51.176;6.738;2023-05-10T03:05:54;14.30;82.00
48551;DHT22;34397;51.176;6.738;2023-05-10T03:08:26;14.30;82.00
48551;DHT22;34397;51.176;6.738;2023-05-10T03:11:09;14.30;82.00
48551;DHT22;34397;51.176;6.738;2023-05-10T03:13:56;14.40;82.00
48551;DHT22;34397;51.176;6.738;2023-05-10T03:16:34;14.40;82.00
48551;DHT22;34397;51.176;6.738;2023-05-10T03:19:19;14.40;81.80
48551;DHT22;34397;51.176;6.738;2023-05-10T03:21:58;14.40;81.80
48551;DHT22;34397;51.176;6.738;2023-05-10T03:24:31;14.40;81.60
48551;DHT22;34397;51.176;6.738;2023-05-10T03:27:04;14.40;81.60
48551;DHT22;34397;51.176;6.738;2023-05-10T03:29:36;14.40;81.30
48551;DHT22;34397;51.176;6.738;2023-05-10T03:32:09;14.40;81.40
48551;DHT22;34397;51.176;6.738;2023-05-10T03:34:41;14.40;81.40
48551;DHT22;34397;51.176;6.738;2023-05-10T03:37:14;14.40;81.40
48551;DHT22;34397;51.176;6.738;2023-05-10T03:39:45;14.40;81.30
48551;DHT22;34397;51.176;6.738;2023-05-10T03:42:17;14.40;81.00
48551;DHT22;34397;51.176;6.738;2023-05-10T03:44:49;14.40;80.90
48551;DHT22;34397;51.176;6.738;2023-05-10T03:47:21;14.40;81.10
48551;DHT22;34397;51.176;6.738;2023-05-10T03:49:52;14.40;81.20
48551;DHT22;34397;51.176;6.738;2023-05-10T03:52:25;14.40;81.30
48551;DHT22;34397;51.176;6.738;2023-05-10T03:54:57;14.40;81.20
48551;DHT22;34397;51.176;6.738;2023-05-10T03:57:29;14.40;81.30
48551;DHT22;34397;51.176;6.738;2023-05-10T04:00:00;14.40;81.30
48551;DHT22;34397;51.176;6.738;2023-05-10T04:02:32;14.40;81.20
48551;DHT22;34397;51.176;6.738;2023-05-10T04:05:05;14.40;81.30
48551;DHT22;34397;51.176;6.738;2023-05-10T04:07:38;14.40;81.10
48551;DHT22;34397;51.176;6.738;2023-05-10T04:10:10;14.40;81.30
48551;DHT22;34397;51.176;6.738;2023-05-10T04:12:42;14.40;81.10
48551;DHT22;34397;51.176;6.738;2023-05-10T04:15:14;14.40;81.20
48551;DHT22;34397;51.176;6.738;2023-05-10T04:17:45;14.40;81.60
48551;DHT22;34397;51.176;6.738;2023-05-10T04:20:17;14.40;81.30
48551;DHT22;34397;51.176;6.738;2023-05-10T04:22:50;14.30;81.40
48551;DHT22;34397;51.176;6.738;2023-05-10T04:25:22;14.30;81.70
48551;DHT22;34397;51.176;6.738;2023-05-10T04:27:54;14.30;81.70
48551;DHT22;34397;51.176;6.738;2023-05-10T04:30:25;14.30;81.90
48551;DHT22;34397;51.176;6.738;2023-05-10T04:32:59;14.30;81.60
48551;DHT22;34397;51.176;6.738;2023-05-10T04:35:32;14.30;81.50
48551;DHT22;34397;51.176;6.738;2023-05-10T04:38:05;14.30;81.50
48551;DHT22;34397;51.176;6.738;2023-05-10T04:40:37;14.30;81.50
48551;DHT22;34397;51.176;6.738;2023-05-10T04:43:09;14.30;81.50
48551;DHT22;34397;51.176;6.738;2023-05-10T04:45:40;14.30;81.60
48551;DHT22;34397;51.176;6.738;2023-05-10T04:48:12;14.30;82.00
48551;DHT22;34397;51.176;6.738;2023-05-10T04:50:44;14.30;82.00
48551;DHT22;34397;51.176;6.738;2023-05-10T04:53:17;14.20;82.20
48551;DHT22;34397;51.176;6.738;2023-05-10T04:55:48;14.10;82.70
48551;DHT22;34397;51.176;6.738;2023-05-10T04:58:20;14.20;83.00
48551;DHT22;34397;51.176;6.738;2023-05-10T05:00:52;14.20;82.80
48551;DHT22;34397;51.176;6.738;2023-05-10T05:03:23;14.20;82.80
48551;DHT22;34397;51.176;6.738;2023-05-10T05:05:55;14.10;82.60
48551;DHT22;34397;51.176;6.738;2023-05-10T05:08:28;14.20;82.70
48551;DHT22;34397;51.176;6.738;2023-05-10T05:11:00;14.20;82.90
48551;DHT22;34397;51.176;6.738;2023-05-10T05:13:31;14.20;83.00
48551;DHT22;34397;51.176;6.738;2023-05-10T05:16:03;14.20;82.90
48551;DHT22;34397;51.176;6.738;2023-05-10T05:18:36;14.20;82.90
48551;DHT22;34397;51.176;6.738;2023-05-10T05:21:13;14.20;82.80
48551;DHT22;34397;51.176;6.738;2023-05-10T05:23:47;14.20;82.90
48551;DHT22;34397;51.176;6.738;2023-05-10T05:26:18;14.20;82.20
48551;DHT22;34397;51.176;6.738;2023-05-10T05:28:50;14.20;82.00
48551;DHT22;34397;51.176;6.738;2023-05-10T05:31:24;14.20;82.20
48551;DHT22;34397;51.176;6.738;2023-05-10T05:33:56;14.20;82.30
48551;DHT22;34397;51.176;6.738;2023-05-10T05:36:28;14.20;81.30
48551;DHT22;34397;51.176;6.738;2023-05-10T05:39:02;14.10;81.30
48551;DHT22;34397;51.176;6.738;2023-05-10T05:41:34;14.10;81.80
48551;DHT22;34397;51.176;6.738;2023-05-10T05:44:05;14.10;81.90
48551;DHT22;34397;51.176;6.738;2023-05-10T05:46:37;14.10;81.90
48551;DHT22;34397;51.176;6.738;2023-05-10T05:49:09;14.00;81.40
48551;DHT22;34397;51.176;6.738;2023-05-10T05:51:41;14.00;81.80
48551;DHT22;34397;51.176;6.738;2023-05-10T05:54:14;14.00;81.80
48551;DHT22;34397;51.176;6.738;2023-05-10T05:56:46;14.00;82.30
48551;DHT22;34397;51.176;6.738;2023-05-10T05:59:18;14.10;82.30
48551;DHT22;34397;51.176;6.738;2023-05-10T06:01:49;14.10;82.40
48551;DHT22;34397;51.176;6.738;2023-05-10T06:04:21;14.10;81.90
48551;DHT22;34397;51.176;6.738;2023-05-10T06:06:53;14.10;82.30
48551;DHT22;34397;51.176;6.738;2023-05-10T06:09:26;14.00;81.80
48551;DHT22;34397;51.176;6.738;2023-05-10T06:11:58;14.00;81.20
48551;DHT22;34397;51.176;6.738;2023-05-10T06:14:29;14.00;81.40
48551;DHT22;34397;51.176;6.738;2023-05-10T06:17:01;13.90;81.70
48551;DHT22;34397;51.176;6.738;2023-05-10T06:19:35;13.90;81.70
48551;DHT22;34397;51.176;6.738;2023-05-10T06:22:07;13.90;81.70
48551;DHT22;34397;51.176;6.738;2023-05-10T06:24:40;13.80;81.90
48551;DHT22;34397;51.176;6.738;2023-05-10T06:27:11;13.80;82.50
48551;DHT22;34397;51.176;6.738;2023-05-10T06:29:43;13.70;82.80
48551;DHT22;34397;51.176;6.738;2023-05-10T06:32:15;13.60;83.10
48551;DHT22;34397;51.176;6.738;2023-05-10T06:34:46;13.50;83.40
48551;DHT22;34397;51.176;6.738;2023-05-10T06:37:18;13.40;83.80
48551;DHT22;34397;51.176;6.738;2023-05-10T06:39:51;13.40;85.00
48551;DHT22;34397;51.176;6.738;2023-05-10T06:42:23;13.50;84.70
48551;DHT22;34397;51.176;6.738;2023-05-10T06:44:55;13.60;84.30
48551;DHT22;34397;51.176;6.738;2023-05-10T06:47:27;13.70;84.00
48551;DHT22;34397;51.176;6.738;2023-05-10T06:49:59;13.80;84.00
48551;DHT22;34397;51.176;6.738;2023-05-10T06:52:30;13.80;84.10
48551;DHT22;34397;51.176;6.738;2023-05-10T06:55:04;13.90;84.00
48551;DHT22;34397;51.176;6.738;2023-05-10T06:57:36;14.10;83.90
48551;DHT22;34397;51.176;6.738;2023-05-10T07:00:08;14.20;83.90
48551;DHT22;34397;51.176;6.738;2023-05-10T07:02:40;14.30;83.60
48551;DHT22;34397;51.176;6.738;2023-05-10T07:05:12;14.40;83.00
48551;DHT22;34397;51.176;6.738;2023-05-10T07:07:45;14.40;82.60
48551;DHT22;34397;51.176;6.738;2023-05-10T07:10:18;14.50;82.20
48551;DHT22;34397;51.176;6.738;2023-05-10T07:12:50;14.60;82.10
48551;DHT22;34397;51.176;6.738;2023-05-10T07:15:21;14.70;82.20
48551;DHT22;34397;51.176;6.738;2023-05-10T07:17:53;14.70;82.20
48551;DHT22;34397;51.176;6.738;2023-05-10T07:20:25;14.80;80.60
48551;DHT22;34397;51.176;6.738;2023-05-10T07:22:57;14.80;81.40
48551;DHT22;34397;51.176;6.738;2023-05-10T07:25:30;14.90;81.30
48551;DHT22;34397;51.176;6.738;2023-05-10T07:28:02;14.90;81.30
48551;DHT22;34397;51.176;6.738;2023-05-10T07:30:33;14.90;81.30
48551;DHT22;34397;51.176;6.738;2023-05-10T07:33:06;15.00;79.90
48551;DHT22;34397;51.176;6.738;2023-05-10T07:35:38;15.10;79.60
48551;DHT22;34397;51.176;6.738;2023-05-10T07:38:10;15.10;79.50
48551;DHT22;34397;51.176;6.738;2023-05-10T07:40:43;15.10;79.20
48551;DHT22;34397;51.176;6.738;2023-05-10T07:43:15;15.10;79.20
48551;DHT22;34397;51.176;6.738;2023-05-10T07:45:46;15.10;79.10
48551;DHT22;34397;51.176;6.738;2023-05-10T07:48:18;15.10;79.10
48551;DHT22;34397;51.176;6.738;2023-05-10T07:50:50;15.10;79.00
48551;DHT22;34397;51.176;6.738;2023-05-10T07:53:22;15.10;79.00
48551;DHT22;34397;51.176;6.738;2023-05-10T07:55:57;15.10;78.90
48551;DHT22;34397;51.176;6.738;2023-05-10T07:58:29;15.10;78.30
48551;DHT22;34397;51.176;6.738;2023-05-10T08:01:01;15.10;78.50
48551;DHT22;34397;51.176;6.738;2023-05-10T08:03:32;15.10;79.30
48551;DHT22;34397;51.176;6.738;2023-05-10T08:06:04;15.20;79.30
48551;DHT22;34397;51.176;6.738;2023-05-10T08:08:36;15.20;78.50
48551;DHT22;34397;51.176;6.738;2023-05-10T08:11:10;15.30;77.90
48551;DHT22;34397;51.176;6.738;2023-05-10T08:13:41;15.40;77.50
48551;DHT22;34397;51.176;6.738;2023-05-10T08:16:13;15.30;77.60
48551;DHT22;34397;51.176;6.738;2023-05-10T08:18:46;15.40;78.00
48551;DHT22;34397;51.176;6.738;2023-05-10T08:21:19;15.50;78.70
48551;DHT22;34397;51.176;6.738;2023-05-10T08:23:51;15.50;78.10
48551;DHT22;34397;51.176;6.738;2023-05-10T08:26:24;15.60;77.70
48551;DHT22;34397;51.176;6.738;2023-05-10T08:28:56;15.70;77.20
48551;DHT22;34397;51.176;6.738;2023-05-10T08:31:28;15.80;77.80
48551;DHT22;34397;51.176;6.738;2023-05-10T08:33:59;15.80;77.20
48551;DHT22;34397;51.176;6.738;2023-05-10T08:36:31;15.90;76.50
48551;DHT22;34397;51.176;6.738;2023-05-10T08:39:03;16.00;76.50
48551;DHT22;34397;51.176;6.738;2023-05-10T08:41:36;16.00;76.10
48551;DHT22;34397;51.176;6.738;2023-05-10T08:44:10;16.00;74.70
48551;DHT22;34397;51.176;6.738;2023-05-10T08:46:42;16.00;74.30
48551;DHT22;34397;51.176;6.738;2023-05-10T08:49:16;15.90;74.60
48551;DHT22;34397;51.176;6.738;2023-05-10T08:51:50;15.90;74.60
48551;DHT22;34397;51.176;6.738;2023-05-10T08:54:23;15.90;74.80
48551;DHT22;34397;51.176;6.738;2023-05-10T08:56:56;15.80;74.30
48551;DHT22;34397;51.176;6.738;2023-05-10T08:59:28;15.80;75.30
48551;DHT22;34397;51.176;6.738;2023-05-10T09:02:00;15.80;74.80
48551;DHT22;34397;51.176;6.738;2023-05-10T09:04:32;15.80;74.70
48551;DHT22;34397;51.176;6.738;2023-05-10T09:07:04;15.70;75.00
48551;DHT22;34397;51.176;6.738;2023-05-10T09:09:37;15.70;74.60
48551;DHT22;34397;51.176;6.738;2023-05-10T09:12:10;15.70;74.30
48551;DHT22;34397;51.176;6.738;2023-05-10T09:14:42;15.70;74.20
48551;DHT22;34397;51.176;6.738;2023-05-10T09:17:15;15.70;74.50
48551;DHT22;34397;51.176;6.738;2023-05-10T09:19:47;15.70;74.60
48551;DHT22;34397;51.176;6.738;2023-05-10T09:22:19;15.70;74.80
48551;DHT22;34397;51.176;6.738;2023-05-10T09:25:03;15.80;74.20
48551;DHT22;34397;51.176;6.738;2023-05-10T09:27:37;15.80;73.50
48551;DHT22;34397;51.176;6.738;2023-05-10T09:30:09;15.80;73.10
48551;DHT22;34397;51.176;6.738;2023-05-10T09:32:41;15.80;73.10
48551;DHT22;34397;51.176;6.738;2023-05-10T09:35:14;15.70;72.30
48551;DHT22;34397;51.176;6.738;2023-05-10T09:37:47;15.70;73.20
48551;DHT22;34397;51.176;6.738;2023-05-10T09:40:21;15.80;72.50
48551;DHT22;34397;51.176;6.738;2023-05-10T09:42:55;15.80;72.20
48551;DHT22;34397;51.176;6.738;2023-05-10T09:45:29;15.70;73.70
48551;DHT22;34397;51.176;6.738;2023-05-10T09:48:01;15.70;73.10
48551;DHT22;34397;51.176;6.738;2023-05-10T09:50:33;15.80;72.70
48551;DHT22;34397;51.176;6.738;2023-05-10T09:53:05;15.80;72.40
48551;DHT22;34397;51.176;6.738;2023-05-10T09:55:40;15.90;72.90
48551;DHT22;34397;51.176;6.738;2023-05-10T09:58:16;15.90;72.50
48551;DHT22;34397;51.176;6.738;2023-05-10T10:00:48;15.90;72.20
48551;DHT22;34397;51.176;6.738;2023-05-10T10:03:21;15.90;71.70
48551;DHT22;34397;51.176;6.738;2023-05-10T10:05:54;15.90;70.60
48551;DHT22;34397;51.176;6.738;2023-05-10T10:08:26;15.90;71.40
48551;DHT22;34397;51.176;6.738;2023-05-10T10:10:58;15.90;71.90
48551;DHT22;34397;51.176;6.738;2023-05-10T10:13:31;15.90;73.60
48551;DHT22;34397;51.176;6.738;2023-05-10T10:16:03;16.00;72.90
48551;DHT22;34397;51.176;6.738;2023-05-10T10:18:35;16.10;73.30
48551;DHT22;34397;51.176;6.738;2023-05-10T10:21:08;16.20;73.50
48551;DHT22;34397;51.176;6.738;2023-05-10T10:23:40;16.20;70.00
48551;DHT22;34397;51.176;6.738;2023-05-10T10:26:13;16.30;71.50
48551;DHT22;34397;51.176;6.738;2023-05-10T10:28:48;16.40;70.80
48551;DHT22;34397;51.176;6.738;2023-05-10T10:31:24;16.50;69.00
48551;DHT22;34397;51.176;6.738;2023-05-10T10:34:00;16.50;71.40
48551;DHT22;34397;51.176;6.738;2023-05-10T10:36:32;16.60;70.10
48551;DHT22;34397;51.176;6.738;2023-05-10T10:39:08;16.70;71.80
48551;DHT22;34397;51.176;6.738;2023-05-10T10:41:48;16.70;70.80
48551;DHT22;34397;51.176;6.738;2023-05-10T10:44:25;16.70;69.70
48551;DHT22;34397;51.176;6.738;2023-05-10T10:47:23;16.70;70.10
48551;DHT22;34397;51.176;6.738;2023-05-10T10:50:05;16.70;69.90
48551;DHT22;34397;51.176;6.738;2023-05-10T10:52:37;16.80;70.00
48551;DHT22;34397;51.176;6.738;2023-05-10T10:55:10;16.80;70.30
48551;DHT22;34397;51.176;6.738;2023-05-10T10:57:44;16.80;69.20
48551;DHT22;34397;51.176;6.738;2023-05-10T11:00:19;16.90;69.80
48551;DHT22;34397;51.176;6.738;2023-05-10T11:02:58;17.00;68.30
48551;DHT22;34397;51.176;6.738;2023-05-10T11:05:35;17.00;68.70
48551;DHT22;34397;51.176;6.738;2023-05-10T11:08:12;17.00;68.90
48551;DHT22;34397;51.176;6.738;2023-05-10T11:10:50;17.00;69.60
48551;DHT22;34397;51.176;6.738;2023-05-10T11:13:34;17.00;68.50
48551;DHT22;34397;51.176;6.738;2023-05-10T11:16:14;17.10;69.30
48551;DHT22;34397;51.176;6.738;2023-05-10T11:18:57;17.10;69.60
48551;DHT22;34397;51.176;6.738;2023-05-10T11:21:32;17.20;69.70
48551;DHT22;34397;51.176;6.738;2023-05-10T11:24:09;17.20;68.10
48551;DHT22;34397;51.176;6.738;2023-05-10T11:26:44;17.20;68.10
48551;DHT22;34397;51.176;6.738;2023-05-10T11:29:16;17.20;67.00
48551;DHT22;34397;51.176;6.738;2023-05-10T11:31:50;17.30;69.80
48551;DHT22;34397;51.176;6.738;2023-05-10T11:34:22;17.30;68.50
48551;DHT22;34397;51.176;6.738;2023-05-10T11:36:55;17.30;66.50
48551;DHT22;34397;51.176;6.738;2023-05-10T11:39:28;17.30;66.60
48551;DHT22;34397;51.176;6.738;2023-05-10T11:42:00;17.30;67.20
48551;DHT22;34397;51.176;6.738;2023-05-10T11:44:32;17.30;66.70
48551;DHT22;34397;51.176;6.738;2023-05-10T11:47:05;17.30;67.20
48551;DHT22;34397;51.176;6.738;2023-05-10T11:49:37;17.30;66.70
48551;DHT22;34397;51.176;6.738;2023-05-10T11:52:09;17.30;68.40
48551;DHT22;34397;51.176;6.738;2023-05-10T11:54:44;17.30;67.70
48551;DHT22;34397;51.176;6.738;2023-05-10T11:57:17;17.40;67.00
48551;DHT22;34397;51.176;6.738;2023-05-10T11:59:52;17.40;66.10
48551;DHT22;34397;51.176;6.738;2023-05-10T12:02:25;17.30;66.20
48551;DHT22;34397;51.176;6.738;2023-05-10T12:04:57;17.30;66.50
48551;DHT22;34397;51.176;6.738;2023-05-10T12:07:29;17.20;65.70
48551;DHT22;34397;51.176;6.738;2023-05-10T12:10:07;17.10;63.70
48551;DHT22;34397;51.176;6.738;2023-05-10T12:12:41;17.10;66.10
48551;DHT22;34397;51.176;6.738;2023-05-10T12:15:17;17.00;67.20
48551;DHT22;34397;51.176;6.738;2023-05-10T12:17:50;17.00;67.20
48551;DHT22;34397;51.176;6.738;2023-05-10T12:20:23;16.90;66.80
48551;DHT22;34397;51.176;6.738;2023-05-10T12:22:56;16.90;67.20
48551;DHT22;34397;51.176;6.738;2023-05-10T12:25:30;16.80;68.60
48551;DHT22;34397;51.176;6.738;2023-05-10T12:28:03;16.70;68.90
48551;DHT22;34397;51.176;6.738;2023-05-10T12:30:35;16.70;69.80
48551;DHT22;34397;51.176;6.738;2023-05-10T12:33:09;16.60;69.70
48551;DHT22;34397;51.176;6.738;2023-05-10T12:35:45;16.60;70.10
48551;DHT22;34397;51.176;6.738;2023-05-10T12:38:24;16.60;70.30
48551;DHT22;34397;51.176;6.738;2023-05-10T12:41:00;16.60;70.60
48551;DHT22;34397;51.176;6.738;2023-05-10T12:43:32;16.70;70.30
48551;DHT22;34397;51.176;6.738;2023-05-10T12:46:05;16.70;70.60
48551;DHT22;34397;51.176;6.738;2023-05-10T12:48:39;16.70;70.90
48551;DHT22;34397;51.176;6.738;2023-05-10T12:51:11;16.70;71.40
48551;DHT22;34397;51.176;6.738;2023-05-10T12:53:45;16.80;71.20
48551;DHT22;34397;51.176;6.738;2023-05-10T12:56:18;16.80;70.50
48551;DHT22;34397;51.176;6.738;2023-05-10T12:58:50;16.80;69.20
48551;DHT22;34397;51.176;6.738;2023-05-10T13:01:22;16.80;69.80
48551;DHT22;34397;51.176;6.738;2023-05-10T13:03:55;16.90;71.40
48551;DHT22;34397;51.176;6.738;2023-05-10T13:06:26;16.90;71.40
48551;DHT22;34397;51.176;6.738;2023-05-10T13:08:58;16.90;70.80
48551;DHT22;34397;51.176;6.738;2023-05-10T13:11:30;16.90;71.20
48551;DHT22;34397;51.176;6.738;2023-05-10T13:14:01;16.90;71.10
48551;DHT22;34397;51.176;6.738;2023-05-10T13:16:34;16.90;71.40
48551;DHT22;34397;51.176;6.738;2023-05-10T13:19:07;17.00;71.90
48551;DHT22;34397;51.176;6.738;2023-05-10T13:21:39;17.00;72.90
48551;DHT22;34397;51.176;6.738;2023-05-10T13:24:11;17.00;72.40
48551;DHT22;34397;51.176;6.738;2023-05-10T13:26:43;17.10;70.80
48551;DHT22;34397;51.176;6.738;2023-05-10T13:29:15;17.00;69.90
48551;DHT22;34397;51.176;6.738;2023-05-10T13:31:48;17.10;70.60
48551;DHT22;34397;51.176;6.738;2023-05-10T13:34:21;17.00;70.40
48551;DHT22;34397;51.176;6.738;2023-05-10T13:36:53;17.00;71.20
48551;DHT22;34397;51.176;6.738;2023-05-10T13:39:26;17.00;70.20
48551;DHT22;34397;51.176;6.738;2023-05-10T13:41:59;17.00;69.60
48551;DHT22;34397;51.176;6.738;2023-05-10T13:44:31;17.00;69.10
48551;DHT22;34397;51.176;6.738;2023-05-10T13:47:04;16.90;68.80
48551;DHT22;34397;51.176;6.738;2023-05-10T13:49:37;16.90;69.60
48551;DHT22;34397;51.176;6.738;2023-05-10T13:52:08;16.90;69.60
48551;DHT22;34397;51.176;6.738;2023-05-10T13:54:40;16.90;70.40
48551;DHT22;34397;51.176;6.738;2023-05-10T13:57:12;16.90;70.80
48551;DHT22;34397;51.176;6.738;2023-05-10T13:59:44;16.90;71.40
48551;DHT22;34397;51.176;6.738;2023-05-10T14:02:15;16.90;71.90
48551;DHT22;34397;51.176;6.738;2023-05-10T14:04:48;17.00;72.00
48551;DHT22;34397;51.176;6.738;2023-05-10T14:07:20;17.00;72.10
48551;DHT22;34397;51.176;6.738;2023-05-10T14:09:52;17.00;72.00
48551;DHT22;34397;51.176;6.738;2023-05-10T14:12:23;17.10;72.40
48551;DHT22;34397;51.176;6.738;2023-05-10T14:14:55;17.10;72.20
48551;DHT22;34397;51.176;6.738;2023-05-10T14:17:28;17.10;71.50
48551;DHT22;34397;51.176;6.738;2023-05-10T14:20:01;17.20;68.40
48551;DHT22;34397;51.176;6.738;2023-05-10T14:22:34;17.20;69.70
48551;DHT22;34397;51.176;6.738;2023-05-10T14:25:06;17.30;67.70
48551;DHT22;34397;51.176;6.738;2023-05-10T14:27:38;17.40;71.10
48551;DHT22;34397;51.176;6.738;2023-05-10T14:30:10;17.60;72.60
48551;DHT22;34397;51.176;6.738;2023-05-10T14:32:42;17.70;69.30
48551;DHT22;34397;51.176;6.738;2023-05-10T14:35:15;17.80;70.20
48551;DHT22;34397;51.176;6.738;2023-05-10T14:37:47;17.90;66.10
48551;DHT22;34397;51.176;6.738;2023-05-10T14:40:18;18.10;69.70
48551;DHT22;34397;51.176;6.738;2023-05-10T14:42:51;18.20;65.90
48551;DHT22;34397;51.176;6.738;2023-05-10T14:45:23;18.30;65.30
48551;DHT22;34397;51.176;6.738;2023-05-10T14:47:55;18.30;63.60
48551;DHT22;34397;51.176;6.738;2023-05-10T14:50:28;18.30;64.70
48551;DHT22;34397;51.176;6.738;2023-05-10T14:52:59;18.40;63.20
48551;DHT22;34397;51.176;6.738;2023-05-10T14:55:31;18.30;62.20
48551;DHT22;34397;51.176;6.738;2023-05-10T14:58:04;18.30;60.60
48551;DHT22;34397;51.176;6.738;2023-05-10T15:00:36;18.20;61.40
48551;DHT22;34397;51.176;6.738;2023-05-10T15:03:08;18.10;61.20
48551;DHT22;34397;51.176;6.738;2023-05-10T15:05:41;18.20;65.30
48551;DHT22;34397;51.176;6.738;2023-05-10T15:08:12;18.30;65.20
48551;DHT22;34397;51.176;6.738;2023-05-10T15:10:44;18.20;60.70
48551;DHT22;34397;51.176;6.738;2023-05-10T15:13:16;18.20;63.80
48551;DHT22;34397;51.176;6.738;2023-05-10T15:15:48;18.40;65.70
48551;DHT22;34397;51.176;6.738;2023-05-10T15:18:20;18.50;66.30
48551;DHT22;34397;51.176;6.738;2023-05-10T15:20:53;18.60;63.70
48551;DHT22;34397;51.176;6.738;2023-05-10T15:23:25;18.60;65.80
48551;DHT22;34397;51.176;6.738;2023-05-10T15:25:57;18.70;61.20
48551;DHT22;34397;51.176;6.738;2023-05-10T15:28:29;18.70;60.20
48551;DHT22;34397;51.176;6.738;2023-05-10T15:31:00;18.70;58.70
48551;DHT22;34397;51.176;6.738;2023-05-10T15:33:33;18.70;62.30
48551;DHT22;34397;51.176;6.738;2023-05-10T15:36:06;18.80;63.30
48551;DHT22;34397;51.176;6.738;2023-05-10T15:38:38;18.90;63.90
48551;DHT22;34397;51.176;6.738;2023-05-10T15:41:10;19.00;64.50
48551;DHT22;34397;51.176;6.738;2023-05-10T15:43:42;19.10;63.20
48551;DHT22;34397;51.176;6.738;2023-05-10T15:46:13;19.10;63.20
48551;DHT22;34397;51.176;6.738;2023-05-10T15:48:45;19.10;62.20
48551;DHT22;34397;51.176;6.738;2023-05-10T15:51:18;19.10;62.60
48551;DHT22;34397;51.176;6.738;2023-05-10T15:53:50;19.10;62.10
48551;DHT22;34397;51.176;6.738;2023-05-10T15:56:21;19.00;62.00
48551;DHT22;34397;51.176;6.738;2023-05-10T15:58:53;19.00;62.20
48551;DHT22;34397;51.176;6.738;2023-05-10T16:01:25;18.90;61.80
48551;DHT22;34397;51.176;6.738;2023-05-10T16:03:57;18.90;60.90
48551;DHT22;34397;51.176;6.738;2023-05-10T16:06:30;18.80;62.10